アルジェ の空港の天気 - METARとTAF

ウアリ・ブーメディアン空港 ( DAAG / ALG ) - アルジェリア アルジェ
飛行場実況気象(Metar)
観測時間10/21 16:30 CET (10/21 15:30 UTC)
風向・風速南南西 4m/s
視程10km以上
天気現象
少しの雲 雲底高度 700m
全天の8割程度の雲 雲底高度 6100m
気温30℃
湿度19%
気圧1014hPa
METARDAAG 211530Z 20008KT 9999 FEW023 BKN200 30/04 Q1014
過去の天気等 Google飛行場航空写真 Wunderground天気予報

過去48時間のMETAR

飛行場予報(TAF)
発表時間: 10/21 12:00 CET (10/21 11:00 UTC)
予報対象時間: 21日13時 CET ~ 22日13時 CET
風向・風速南南西 6m/s
視程6000m
少しの雲 雲底高度 790m
全天の4割程度の雲 雲底高度 700m
21日13時 CET ~ 21日19時 CET に一時的に
視程3000m
天気現象低い風塵
21日20時 CET ~ 22日1時 CET に 確率 30% で一時的に
風向・風速南西 8m/s 瞬間風速 13m/s
少しの塔状積雲 雲底高度 700m
TAF DAAG 211100Z 2112/2212 21012KT 6000 FEW026 SCT023
TEMPO 2112/2118 3000 DRDU
PROB30 TEMPO 2119/2124 22015G25KT FEW023TCU